sensor_id;sensor_type;location;lat;lon;timestamp;temperature;humidity
15184;DHT22;7693;49.266;7.104;2023-04-19T05:16:31;9.50;99.90
15184;DHT22;7693;49.266;7.104;2023-04-19T05:18:57;9.50;99.90
15184;DHT22;7693;49.266;7.104;2023-04-19T05:21:23;9.50;99.90
15184;DHT22;7693;49.266;7.104;2023-04-19T05:23:48;9.60;99.90
15184;DHT22;7693;49.266;7.104;2023-04-19T05:26:14;9.60;99.90
15184;DHT22;7693;49.266;7.104;2023-04-19T05:28:41;9.70;99.90
15184;DHT22;7693;49.266;7.104;2023-04-19T05:31:10;9.70;99.90
15184;DHT22;7693;49.266;7.104;2023-04-19T05:33:36;9.80;99.90
15184;DHT22;7693;49.266;7.104;2023-04-19T05:36:01;9.80;99.90
15184;DHT22;7693;49.266;7.104;2023-04-19T05:38:27;9.80;99.90
15184;DHT22;7693;49.266;7.104;2023-04-19T05:40:52;9.90;99.90
15184;DHT22;7693;49.266;7.104;2023-04-19T05:43:18;9.90;99.90
15184;DHT22;7693;49.266;7.104;2023-04-19T05:45:43;9.90;99.90
15184;DHT22;7693;49.266;7.104;2023-04-19T05:48:09;9.90;99.90
15184;DHT22;7693;49.266;7.104;2023-04-19T05:50:35;9.90;99.90
15184;DHT22;7693;49.266;7.104;2023-04-19T05:53:01;10.00;99.90
15184;DHT22;7693;49.266;7.104;2023-04-19T05:55:27;10.00;99.90
15184;DHT22;7693;49.266;7.104;2023-04-19T05:57:52;10.00;99.90
15184;DHT22;7693;49.266;7.104;2023-04-19T06:00:18;10.00;99.90
15184;DHT22;7693;49.266;7.104;2023-04-19T06:02:44;10.00;99.90
15184;DHT22;7693;49.266;7.104;2023-04-19T06:05:09;10.00;99.90
15184;DHT22;7693;49.266;7.104;2023-04-19T06:07:35;10.10;99.90
15184;DHT22;7693;49.266;7.104;2023-04-19T06:10:00;10.10;99.90
15184;DHT22;7693;49.266;7.104;2023-04-19T06:12:26;10.10;99.90
15184;DHT22;7693;49.266;7.104;2023-04-19T06:14:53;10.10;99.90
15184;DHT22;7693;49.266;7.104;2023-04-19T06:17:19;10.10;99.90
15184;DHT22;7693;49.266;7.104;2023-04-19T06:19:49;10.10;99.90
15184;DHT22;7693;49.266;7.104;2023-04-19T06:22:15;10.20;99.90
15184;DHT22;7693;49.266;7.104;2023-04-19T06:24:41;10.30;99.90
15184;DHT22;7693;49.266;7.104;2023-04-19T06:27:08;10.30;99.90
15184;DHT22;7693;49.266;7.104;2023-04-19T06:29:33;10.40;99.90
15184;DHT22;7693;49.266;7.104;2023-04-19T06:31:59;10.40;99.90
15184;DHT22;7693;49.266;7.104;2023-04-19T06:34:25;10.40;99.90
15184;DHT22;7693;49.266;7.104;2023-04-19T06:36:50;10.50;99.90
15184;DHT22;7693;49.266;7.104;2023-04-19T06:39:19;10.50;99.90
15184;DHT22;7693;49.266;7.104;2023-04-19T06:41:45;10.50;99.90
15184;DHT22;7693;49.266;7.104;2023-04-19T06:44:11;10.50;99.90
15184;DHT22;7693;49.266;7.104;2023-04-19T06:46:37;10.50;99.90
15184;DHT22;7693;49.266;7.104;2023-04-19T06:49:03;10.50;99.90
15184;DHT22;7693;49.266;7.104;2023-04-19T06:51:29;10.60;99.90
15184;DHT22;7693;49.266;7.104;2023-04-19T06:53:54;10.60;99.90
15184;DHT22;7693;49.266;7.104;2023-04-19T06:56:39;10.60;99.90
15184;DHT22;7693;49.266;7.104;2023-04-19T06:59:06;10.60;99.90
15184;DHT22;7693;49.266;7.104;2023-04-19T07:01:32;10.70;99.90
15184;DHT22;7693;49.266;7.104;2023-04-19T07:03:57;10.70;99.90
15184;DHT22;7693;49.266;7.104;2023-04-19T07:06:23;10.70;99.90
15184;DHT22;7693;49.266;7.104;2023-04-19T07:08:49;10.70;99.90
15184;DHT22;7693;49.266;7.104;2023-04-19T07:11:14;10.60;99.90
15184;DHT22;7693;49.266;7.104;2023-04-19T07:13:40;10.70;99.90
15184;DHT22;7693;49.266;7.104;2023-04-19T07:16:05;10.80;99.90
15184;DHT22;7693;49.266;7.104;2023-04-19T07:18:32;10.80;99.90
15184;DHT22;7693;49.266;7.104;2023-04-19T07:20:57;10.80;99.90
15184;DHT22;7693;49.266;7.104;2023-04-19T07:23:23;10.90;99.90
15184;DHT22;7693;49.266;7.104;2023-04-19T07:25:49;10.90;99.90
15184;DHT22;7693;49.266;7.104;2023-04-19T07:28:14;10.90;99.90
15184;DHT22;7693;49.266;7.104;2023-04-19T07:30:40;11.00;99.90
15184;DHT22;7693;49.266;7.104;2023-04-19T07:33:06;11.00;99.90
15184;DHT22;7693;49.266;7.104;2023-04-19T07:35:33;11.10;99.90
15184;DHT22;7693;49.266;7.104;2023-04-19T07:37:59;11.20;99.90
15184;DHT22;7693;49.266;7.104;2023-04-19T07:40:25;11.20;99.90
15184;DHT22;7693;49.266;7.104;2023-04-19T07:42:51;11.20;99.90
15184;DHT22;7693;49.266;7.104;2023-04-19T07:45:19;11.20;99.90
15184;DHT22;7693;49.266;7.104;2023-04-19T07:47:44;11.20;99.90
15184;DHT22;7693;49.266;7.104;2023-04-19T07:50:10;11.30;99.90
15184;DHT22;7693;49.266;7.104;2023-04-19T07:52:36;11.30;99.90
15184;DHT22;7693;49.266;7.104;2023-04-19T07:55:02;11.40;99.90
15184;DHT22;7693;49.266;7.104;2023-04-19T07:57:28;11.50;99.90
15184;DHT22;7693;49.266;7.104;2023-04-19T07:59:53;11.60;99.90
15184;DHT22;7693;49.266;7.104;2023-04-19T08:02:23;11.70;99.90
15184;DHT22;7693;49.266;7.104;2023-04-19T08:04:49;11.70;99.90
15184;DHT22;7693;49.266;7.104;2023-04-19T08:07:16;11.70;99.90
15184;DHT22;7693;49.266;7.104;2023-04-19T08:09:42;11.70;99.90
15184;DHT22;7693;49.266;7.104;2023-04-19T08:12:07;11.80;99.90
15184;DHT22;7693;49.266;7.104;2023-04-19T08:14:33;11.90;99.90
15184;DHT22;7693;49.266;7.104;2023-04-19T08:16:58;12.00;99.90
15184;DHT22;7693;49.266;7.104;2023-04-19T08:19:24;12.10;99.90
15184;DHT22;7693;49.266;7.104;2023-04-19T08:21:49;12.20;99.90
15184;DHT22;7693;49.266;7.104;2023-04-19T08:24:15;12.30;99.90
15184;DHT22;7693;49.266;7.104;2023-04-19T08:26:40;12.40;99.90
15184;DHT22;7693;49.266;7.104;2023-04-19T08:29:06;12.60;99.90
15184;DHT22;7693;49.266;7.104;2023-04-19T08:31:32;12.70;99.90
15184;DHT22;7693;49.266;7.104;2023-04-19T08:33:58;12.80;99.90
15184;DHT22;7693;49.266;7.104;2023-04-19T08:36:24;13.00;99.90
15184;DHT22;7693;49.266;7.104;2023-04-19T08:38:51;13.20;99.90
15184;DHT22;7693;49.266;7.104;2023-04-19T08:41:17;13.30;99.90
15184;DHT22;7693;49.266;7.104;2023-04-19T08:43:44;13.40;99.90
15184;DHT22;7693;49.266;7.104;2023-04-19T08:46:10;13.40;99.90
15184;DHT22;7693;49.266;7.104;2023-04-19T08:48:39;13.40;99.90
15184;DHT22;7693;49.266;7.104;2023-04-19T08:51:05;13.50;99.90
15184;DHT22;7693;49.266;7.104;2023-04-19T08:53:33;13.60;99.90
15184;DHT22;7693;49.266;7.104;2023-04-19T08:56:00;13.70;99.90
15184;DHT22;7693;49.266;7.104;2023-04-19T08:58:26;13.70;99.90
15184;DHT22;7693;49.266;7.104;2023-04-19T09:00:55;13.60;99.90
15184;DHT22;7693;49.266;7.104;2023-04-19T09:03:21;13.50;99.90
15184;DHT22;7693;49.266;7.104;2023-04-19T09:05:47;13.50;99.90
15184;DHT22;7693;49.266;7.104;2023-04-19T09:08:26;13.40;99.90
15184;DHT22;7693;49.266;7.104;2023-04-19T09:11:00;13.40;99.90
15184;DHT22;7693;49.266;7.104;2023-04-19T09:13:30;13.30;99.90
15184;DHT22;7693;49.266;7.104;2023-04-19T09:15:55;13.30;99.90
15184;DHT22;7693;49.266;7.104;2023-04-19T09:18:22;13.20;99.90
15184;DHT22;7693;49.266;7.104;2023-04-19T09:20:52;13.00;99.90
15184;DHT22;7693;49.266;7.104;2023-04-19T09:23:25;12.90;99.90
15184;DHT22;7693;49.266;7.104;2023-04-19T09:26:01;13.00;99.90
15184;DHT22;7693;49.266;7.104;2023-04-19T09:28:29;13.00;99.90
15184;DHT22;7693;49.266;7.104;2023-04-19T09:30:56;13.20;99.90
15184;DHT22;7693;49.266;7.104;2023-04-19T09:35:58;13.40;99.90
15184;DHT22;7693;49.266;7.104;2023-04-19T09:38:23;13.40;99.90
15184;DHT22;7693;49.266;7.104;2023-04-19T09:40:49;13.40;99.90
15184;DHT22;7693;49.266;7.104;2023-04-19T09:43:23;13.30;99.90
15184;DHT22;7693;49.266;7.104;2023-04-19T09:45:52;13.30;99.90
15184;DHT22;7693;49.266;7.104;2023-04-19T09:48:17;13.20;99.90
15184;DHT22;7693;49.266;7.104;2023-04-19T09:50:58;13.10;99.90
15184;DHT22;7693;49.266;7.104;2023-04-19T09:53:26;13.10;99.90
15184;DHT22;7693;49.266;7.104;2023-04-19T09:55:52;13.20;99.90
15184;DHT22;7693;49.266;7.104;2023-04-19T09:58:19;13.20;99.90
15184;DHT22;7693;49.266;7.104;2023-04-19T10:00:45;13.30;99.90
15184;DHT22;7693;49.266;7.104;2023-04-19T12:08:55;14.10;99.90
15184;DHT22;7693;49.266;7.104;2023-04-19T12:11:23;14.10;99.90
15184;DHT22;7693;49.266;7.104;2023-04-19T12:14:11;14.20;99.90
15184;DHT22;7693;49.266;7.104;2023-04-19T12:16:37;14.30;99.90
15184;DHT22;7693;49.266;7.104;2023-04-19T12:19:11;14.30;99.90
15184;DHT22;7693;49.266;7.104;2023-04-19T12:21:40;14.50;99.90
15184;DHT22;7693;49.266;7.104;2023-04-19T12:24:06;14.50;99.90
15184;DHT22;7693;49.266;7.104;2023-04-19T12:26:32;14.40;99.90
15184;DHT22;7693;49.266;7.104;2023-04-19T12:29:00;14.50;99.90
15184;DHT22;7693;49.266;7.104;2023-04-19T12:31:25;14.50;99.90
15184;DHT22;7693;49.266;7.104;2023-04-19T12:33:51;14.60;99.90
15184;DHT22;7693;49.266;7.104;2023-04-19T12:36:17;14.60;99.90
15184;DHT22;7693;49.266;7.104;2023-04-19T12:38:43;14.60;99.90
15184;DHT22;7693;49.266;7.104;2023-04-19T12:41:08;14.70;99.90
15184;DHT22;7693;49.266;7.104;2023-04-19T12:43:34;14.70;99.90
15184;DHT22;7693;49.266;7.104;2023-04-19T12:45:59;14.70;99.90
15184;DHT22;7693;49.266;7.104;2023-04-19T12:48:26;14.80;99.90
15184;DHT22;7693;49.266;7.104;2023-04-19T12:50:51;14.80;99.90
15184;DHT22;7693;49.266;7.104;2023-04-19T12:53:17;14.80;99.90
15184;DHT22;7693;49.266;7.104;2023-04-19T12:55:43;15.00;99.90
15184;DHT22;7693;49.266;7.104;2023-04-19T12:58:16;15.00;99.90
15184;DHT22;7693;49.266;7.104;2023-04-19T13:00:43;15.00;99.90
15184;DHT22;7693;49.266;7.104;2023-04-19T13:03:09;15.10;99.90
15184;DHT22;7693;49.266;7.104;2023-04-19T13:05:36;15.20;99.90
15184;DHT22;7693;49.266;7.104;2023-04-19T13:08:02;15.20;99.90
15184;DHT22;7693;49.266;7.104;2023-04-19T13:10:27;15.20;99.90
15184;DHT22;7693;49.266;7.104;2023-04-19T13:12:53;15.30;99.90
15184;DHT22;7693;49.266;7.104;2023-04-19T13:15:19;15.40;99.90
15184;DHT22;7693;49.266;7.104;2023-04-19T13:17:44;15.50;99.90
15184;DHT22;7693;49.266;7.104;2023-04-19T13:20:10;15.50;99.90
15184;DHT22;7693;49.266;7.104;2023-04-19T13:22:36;15.50;99.90
15184;DHT22;7693;49.266;7.104;2023-04-19T13:25:02;15.40;99.90
15184;DHT22;7693;49.266;7.104;2023-04-19T13:27:28;15.40;99.90
15184;DHT22;7693;49.266;7.104;2023-04-19T13:29:54;15.40;99.90
15184;DHT22;7693;49.266;7.104;2023-04-19T13:32:20;15.30;99.90
15184;DHT22;7693;49.266;7.104;2023-04-19T13:34:46;15.40;99.90
15184;DHT22;7693;49.266;7.104;2023-04-19T13:37:11;15.50;99.90
15184;DHT22;7693;49.266;7.104;2023-04-19T13:39:37;15.80;99.90
15184;DHT22;7693;49.266;7.104;2023-04-19T13:42:02;16.00;99.90
15184;DHT22;7693;49.266;7.104;2023-04-19T13:44:28;16.10;99.90
15184;DHT22;7693;49.266;7.104;2023-04-19T13:46:54;16.30;99.90
15184;DHT22;7693;49.266;7.104;2023-04-19T13:49:20;16.50;99.90
15184;DHT22;7693;49.266;7.104;2023-04-19T13:51:45;16.70;99.90
15184;DHT22;7693;49.266;7.104;2023-04-19T13:54:11;16.80;99.90
15184;DHT22;7693;49.266;7.104;2023-04-19T13:56:37;16.80;99.90
15184;DHT22;7693;49.266;7.104;2023-04-19T13:59:02;16.60;99.90
15184;DHT22;7693;49.266;7.104;2023-04-19T14:01:28;16.40;99.90
15184;DHT22;7693;49.266;7.104;2023-04-19T14:03:53;16.10;99.90
15184;DHT22;7693;49.266;7.104;2023-04-19T14:06:19;15.90;99.90
15184;DHT22;7693;49.266;7.104;2023-04-19T14:08:45;15.70;99.90
15184;DHT22;7693;49.266;7.104;2023-04-19T14:11:10;15.50;99.90
15184;DHT22;7693;49.266;7.104;2023-04-19T14:13:36;15.40;99.90
15184;DHT22;7693;49.266;7.104;2023-04-19T14:16:02;15.40;99.90
15184;DHT22;7693;49.266;7.104;2023-04-19T14:18:28;15.40;99.90
15184;DHT22;7693;49.266;7.104;2023-04-19T14:20:54;15.60;99.90
15184;DHT22;7693;49.266;7.104;2023-04-19T14:23:20;15.70;99.90
15184;DHT22;7693;49.266;7.104;2023-04-19T14:25:45;15.70;99.90
15184;DHT22;7693;49.266;7.104;2023-04-19T14:28:11;15.80;99.90
15184;DHT22;7693;49.266;7.104;2023-04-19T14:30:37;16.00;99.90
15184;DHT22;7693;49.266;7.104;2023-04-19T14:33:03;16.20;99.90
15184;DHT22;7693;49.266;7.104;2023-04-19T14:35:29;16.30;99.90
15184;DHT22;7693;49.266;7.104;2023-04-19T14:37:55;16.30;99.90
15184;DHT22;7693;49.266;7.104;2023-04-19T14:40:20;16.10;99.90
15184;DHT22;7693;49.266;7.104;2023-04-19T14:42:47;16.00;99.90
15184;DHT22;7693;49.266;7.104;2023-04-19T14:45:12;15.90;99.90
15184;DHT22;7693;49.266;7.104;2023-04-19T14:47:38;15.80;99.90
15184;DHT22;7693;49.266;7.104;2023-04-19T14:50:05;15.70;99.90
15184;DHT22;7693;49.266;7.104;2023-04-19T14:52:31;15.60;99.90
15184;DHT22;7693;49.266;7.104;2023-04-19T14:54:56;15.60;99.90
15184;DHT22;7693;49.266;7.104;2023-04-19T14:57:24;15.60;99.90
15184;DHT22;7693;49.266;7.104;2023-04-19T14:59:53;15.60;99.90
15184;DHT22;7693;49.266;7.104;2023-04-19T15:02:22;15.70;99.90
15184;DHT22;7693;49.266;7.104;2023-04-19T15:04:48;15.80;99.90
15184;DHT22;7693;49.266;7.104;2023-04-19T15:07:14;15.80;99.90
15184;DHT22;7693;49.266;7.104;2023-04-19T15:09:39;15.70;99.90
15184;DHT22;7693;49.266;7.104;2023-04-19T15:12:05;15.60;99.90
15184;DHT22;7693;49.266;7.104;2023-04-19T15:14:31;15.50;99.90
15184;DHT22;7693;49.266;7.104;2023-04-19T15:16:56;15.40;99.90
15184;DHT22;7693;49.266;7.104;2023-04-19T15:19:22;15.40;99.90
15184;DHT22;7693;49.266;7.104;2023-04-19T15:21:48;15.40;99.90
15184;DHT22;7693;49.266;7.104;2023-04-19T15:24:13;15.50;99.90
15184;DHT22;7693;49.266;7.104;2023-04-19T15:26:39;15.50;99.90
15184;DHT22;7693;49.266;7.104;2023-04-19T15:29:04;15.40;99.90
15184;DHT22;7693;49.266;7.104;2023-04-19T15:31:30;15.40;99.90
15184;DHT22;7693;49.266;7.104;2023-04-19T15:33:57;15.30;99.90
15184;DHT22;7693;49.266;7.104;2023-04-19T15:36:26;15.30;99.90
15184;DHT22;7693;49.266;7.104;2023-04-19T15:38:52;15.30;99.90
15184;DHT22;7693;49.266;7.104;2023-04-19T15:41:17;15.30;99.90
15184;DHT22;7693;49.266;7.104;2023-04-19T15:43:43;15.30;99.90
15184;DHT22;7693;49.266;7.104;2023-04-19T15:46:12;15.30;99.90
15184;DHT22;7693;49.266;7.104;2023-04-19T15:48:38;15.30;99.90
15184;DHT22;7693;49.266;7.104;2023-04-19T15:51:04;15.40;99.90
15184;DHT22;7693;49.266;7.104;2023-04-19T15:53:30;15.50;99.90
15184;DHT22;7693;49.266;7.104;2023-04-19T15:55:56;15.60;99.90
15184;DHT22;7693;49.266;7.104;2023-04-19T15:58:21;15.80;99.90
15184;DHT22;7693;49.266;7.104;2023-04-19T16:00:48;16.00;99.90
15184;DHT22;7693;49.266;7.104;2023-04-19T16:03:14;16.20;99.90
15184;DHT22;7693;49.266;7.104;2023-04-19T16:05:40;16.20;99.90
15184;DHT22;7693;49.266;7.104;2023-04-19T16:08:07;16.30;99.90
15184;DHT22;7693;49.266;7.104;2023-04-19T16:10:33;16.40;99.90
15184;DHT22;7693;49.266;7.104;2023-04-19T16:13:01;16.30;99.90
15184;DHT22;7693;49.266;7.104;2023-04-19T16:15:27;16.30;99.90
15184;DHT22;7693;49.266;7.104;2023-04-19T16:17:53;16.20;99.90
15184;DHT22;7693;49.266;7.104;2023-04-19T16:20:19;16.00;99.30
15184;DHT22;7693;49.266;7.104;2023-04-19T16:22:45;16.00;99.90
15184;DHT22;7693;49.266;7.104;2023-04-19T16:25:11;16.10;99.90
15184;DHT22;7693;49.266;7.104;2023-04-19T16:27:43;16.20;99.90
15184;DHT22;7693;49.266;7.104;2023-04-19T16:30:09;16.20;99.90
15184;DHT22;7693;49.266;7.104;2023-04-19T16:32:35;16.40;99.90
15184;DHT22;7693;49.266;7.104;2023-04-19T16:35:02;16.50;99.90
15184;DHT22;7693;49.266;7.104;2023-04-19T16:37:27;16.40;99.10
15184;DHT22;7693;49.266;7.104;2023-04-19T16:39:53;16.30;99.20
15184;DHT22;7693;49.266;7.104;2023-04-19T16:42:19;16.30;99.40
15184;DHT22;7693;49.266;7.104;2023-04-19T16:44:44;16.20;98.80
15184;DHT22;7693;49.266;7.104;2023-04-19T16:47:10;16.20;99.20
15184;DHT22;7693;49.266;7.104;2023-04-19T16:49:35;16.10;98.50
15184;DHT22;7693;49.266;7.104;2023-04-19T16:52:01;16.00;98.20
15184;DHT22;7693;49.266;7.104;2023-04-19T16:54:26;15.90;98.10
15184;DHT22;7693;49.266;7.104;2023-04-19T16:56:52;15.80;97.50
15184;DHT22;7693;49.266;7.104;2023-04-19T16:59:18;15.60;97.40
15184;DHT22;7693;49.266;7.104;2023-04-19T17:01:43;15.60;97.70
15184;DHT22;7693;49.266;7.104;2023-04-19T17:04:09;15.70;99.00
15184;DHT22;7693;49.266;7.104;2023-04-19T17:06:34;15.80;98.00
15184;DHT22;7693;49.266;7.104;2023-04-19T17:09:00;15.90;98.40
15184;DHT22;7693;49.266;7.104;2023-04-19T17:11:29;15.90;98.20
15184;DHT22;7693;49.266;7.104;2023-04-19T17:13:57;15.80;98.00
15184;DHT22;7693;49.266;7.104;2023-04-19T17:16:22;15.80;97.60
15184;DHT22;7693;49.266;7.104;2023-04-19T17:18:48;15.70;97.50
15184;DHT22;7693;49.266;7.104;2023-04-19T17:21:14;15.60;96.10
15184;DHT22;7693;49.266;7.104;2023-04-19T17:23:41;15.20;95.20
15184;DHT22;7693;49.266;7.104;2023-04-19T17:26:08;14.80;95.10
15184;DHT22;7693;49.266;7.104;2023-04-19T17:28:35;14.50;95.20
15184;DHT22;7693;49.266;7.104;2023-04-19T17:31:01;14.30;95.00
15184;DHT22;7693;49.266;7.104;2023-04-19T17:33:26;14.10;94.90
15184;DHT22;7693;49.266;7.104;2023-04-19T17:35:52;13.90;94.90
15184;DHT22;7693;49.266;7.104;2023-04-19T17:38:17;13.80;94.70
15184;DHT22;7693;49.266;7.104;2023-04-19T17:40:43;13.70;94.90
15184;DHT22;7693;49.266;7.104;2023-04-19T17:43:09;13.60;94.90
15184;DHT22;7693;49.266;7.104;2023-04-19T17:45:35;13.60;94.60
15184;DHT22;7693;49.266;7.104;2023-04-19T17:48:01;13.50;94.80
15184;DHT22;7693;49.266;7.104;2023-04-19T17:50:26;13.40;94.60
15184;DHT22;7693;49.266;7.104;2023-04-19T17:52:53;13.40;94.60
15184;DHT22;7693;49.266;7.104;2023-04-19T17:55:19;13.30;94.60
15184;DHT22;7693;49.266;7.104;2023-04-19T17:57:45;13.30;94.40
15184;DHT22;7693;49.266;7.104;2023-04-19T18:00:11;13.20;94.40
15184;DHT22;7693;49.266;7.104;2023-04-19T18:02:37;13.20;94.40
15184;DHT22;7693;49.266;7.104;2023-04-19T18:05:03;13.10;94.30
15184;DHT22;7693;49.266;7.104;2023-04-19T18:07:28;13.00;94.30
15184;DHT22;7693;49.266;7.104;2023-04-19T18:09:54;13.00;94.20
15184;DHT22;7693;49.266;7.104;2023-04-19T18:12:19;12.90;93.90
15184;DHT22;7693;49.266;7.104;2023-04-19T18:14:45;12.80;93.90
15184;DHT22;7693;49.266;7.104;2023-04-19T18:17:10;12.80;93.90
15184;DHT22;7693;49.266;7.104;2023-04-19T18:19:36;12.70;93.70
15184;DHT22;7693;49.266;7.104;2023-04-19T18:22:02;12.60;93.70
15184;DHT22;7693;49.266;7.104;2023-04-19T18:24:27;12.50;93.50
15184;DHT22;7693;49.266;7.104;2023-04-19T18:26:53;12.50;93.40
15184;DHT22;7693;49.266;7.104;2023-04-19T18:29:18;12.40;93.40
15184;DHT22;7693;49.266;7.104;2023-04-19T18:31:47;12.40;93.40
15184;DHT22;7693;49.266;7.104;2023-04-19T18:34:12;12.30;93.30
15184;DHT22;7693;49.266;7.104;2023-04-19T18:36:38;12.20;93.20
15184;DHT22;7693;49.266;7.104;2023-04-19T18:39:03;12.10;93.10
15184;DHT22;7693;49.266;7.104;2023-04-19T18:41:29;12.10;93.10
15184;DHT22;7693;49.266;7.104;2023-04-19T18:43:55;12.00;93.00
15184;DHT22;7693;49.266;7.104;2023-04-19T18:46:20;12.00;92.90
15184;DHT22;7693;49.266;7.104;2023-04-19T18:48:46;11.90;92.90
15184;DHT22;7693;49.266;7.104;2023-04-19T18:51:11;11.80;93.00
15184;DHT22;7693;49.266;7.104;2023-04-19T18:53:38;11.80;92.90
15184;DHT22;7693;49.266;7.104;2023-04-19T18:56:03;11.70;92.80
15184;DHT22;7693;49.266;7.104;2023-04-19T18:58:29;11.70;92.80
15184;DHT22;7693;49.266;7.104;2023-04-19T19:00:55;11.60;92.90
15184;DHT22;7693;49.266;7.104;2023-04-19T19:03:21;11.60;92.80
15184;DHT22;7693;49.266;7.104;2023-04-19T19:05:47;11.50;92.70
15184;DHT22;7693;49.266;7.104;2023-04-19T19:08:13;11.40;92.70
15184;DHT22;7693;49.266;7.104;2023-04-19T19:10:39;11.40;92.60
15184;DHT22;7693;49.266;7.104;2023-04-19T19:13:04;11.40;92.60
15184;DHT22;7693;49.266;7.104;2023-04-19T19:15:30;11.40;92.60
15184;DHT22;7693;49.266;7.104;2023-04-19T19:17:56;11.30;92.60
15184;DHT22;7693;49.266;7.104;2023-04-19T19:20:22;11.30;92.60
15184;DHT22;7693;49.266;7.104;2023-04-19T19:22:47;11.20;92.60
15184;DHT22;7693;49.266;7.104;2023-04-19T19:25:13;11.20;92.50
15184;DHT22;7693;49.266;7.104;2023-04-19T19:27:39;11.10;92.80
15184;DHT22;7693;49.266;7.104;2023-04-19T19:30:05;11.10;92.50
15184;DHT22;7693;49.266;7.104;2023-04-19T19:32:32;11.00;92.40
15184;DHT22;7693;49.266;7.104;2023-04-19T19:34:57;11.00;92.40
15184;DHT22;7693;49.266;7.104;2023-04-19T19:37:24;11.00;92.30
15184;DHT22;7693;49.266;7.104;2023-04-19T19:39:50;10.90;92.30
15184;DHT22;7693;49.266;7.104;2023-04-19T19:42:16;10.90;92.20
15184;DHT22;7693;49.266;7.104;2023-04-19T19:44:45;10.90;92.40
15184;DHT22;7693;49.266;7.104;2023-04-19T19:47:11;10.80;92.20
15184;DHT22;7693;49.266;7.104;2023-04-19T19:49:37;10.80;92.10
15184;DHT22;7693;49.266;7.104;2023-04-19T19:52:02;10.80;92.20
15184;DHT22;7693;49.266;7.104;2023-04-19T19:54:28;10.80;92.10
15184;DHT22;7693;49.266;7.104;2023-04-19T19:56:54;10.70;92.10
15184;DHT22;7693;49.266;7.104;2023-04-19T19:59:20;10.60;92.10
15184;DHT22;7693;49.266;7.104;2023-04-19T20:01:46;10.60;92.10
15184;DHT22;7693;49.266;7.104;2023-04-19T20:04:11;10.60;92.10
15184;DHT22;7693;49.266;7.104;2023-04-19T20:06:37;10.60;92.10
15184;DHT22;7693;49.266;7.104;2023-04-19T20:09:02;10.50;92.00
15184;DHT22;7693;49.266;7.104;2023-04-19T20:11:28;10.50;91.90
15184;DHT22;7693;49.266;7.104;2023-04-19T20:13:54;10.40;92.00
15184;DHT22;7693;49.266;7.104;2023-04-19T20:16:20;10.40;92.00
15184;DHT22;7693;49.266;7.104;2023-04-19T20:18:46;10.30;92.00
15184;DHT22;7693;49.266;7.104;2023-04-19T20:21:14;10.30;91.90
15184;DHT22;7693;49.266;7.104;2023-04-19T20:23:40;10.20;91.90
15184;DHT22;7693;49.266;7.104;2023-04-19T20:26:06;10.20;91.90
15184;DHT22;7693;49.266;7.104;2023-04-19T20:28:31;10.20;91.90
15184;DHT22;7693;49.266;7.104;2023-04-19T20:30:57;10.10;91.90
15184;DHT22;7693;49.266;7.104;2023-04-19T20:33:23;10.00;91.70
15184;DHT22;7693;49.266;7.104;2023-04-19T20:35:49;10.10;91.80
15184;DHT22;7693;49.266;7.104;2023-04-19T20:38:14;10.00;91.80
15184;DHT22;7693;49.266;7.104;2023-04-19T20:40:40;10.00;91.80
15184;DHT22;7693;49.266;7.104;2023-04-19T20:43:07;10.00;91.80
15184;DHT22;7693;49.266;7.104;2023-04-19T20:45:33;9.90;91.70
15184;DHT22;7693;49.266;7.104;2023-04-19T20:47:59;9.90;91.70
15184;DHT22;7693;49.266;7.104;2023-04-19T20:50:24;9.90;91.70
15184;DHT22;7693;49.266;7.104;2023-04-19T20:52:50;9.90;91.70
15184;DHT22;7693;49.266;7.104;2023-04-19T20:55:16;9.80;91.60
15184;DHT22;7693;49.266;7.104;2023-04-19T20:57:41;9.80;91.60
15184;DHT22;7693;49.266;7.104;2023-04-19T21:00:07;9.70;91.60
15184;DHT22;7693;49.266;7.104;2023-04-19T21:02:34;9.70;91.60
15184;DHT22;7693;49.266;7.104;2023-04-19T21:04:59;9.60;91.60
15184;DHT22;7693;49.266;7.104;2023-04-19T21:07:25;9.60;91.60
15184;DHT22;7693;49.266;7.104;2023-04-19T21:09:51;9.60;91.60
15184;DHT22;7693;49.266;7.104;2023-04-19T21:12:16;9.50;91.60
15184;DHT22;7693;49.266;7.104;2023-04-19T21:14:42;9.50;91.60
15184;DHT22;7693;49.266;7.104;2023-04-19T21:17:09;9.40;91.50
15184;DHT22;7693;49.266;7.104;2023-04-19T21:19:36;9.40;91.60
15184;DHT22;7693;49.266;7.104;2023-04-19T21:22:01;9.40;91.60
15184;DHT22;7693;49.266;7.104;2023-04-19T21:24:27;9.30;91.60
15184;DHT22;7693;49.266;7.104;2023-04-19T21:26:52;9.30;91.60
15184;DHT22;7693;49.266;7.104;2023-04-19T21:29:19;9.20;91.60
15184;DHT22;7693;49.266;7.104;2023-04-19T21:31:44;9.20;91.60
15184;DHT22;7693;49.266;7.104;2023-04-19T21:34:10;9.10;91.50
15184;DHT22;7693;49.266;7.104;2023-04-19T21:36:35;9.10;91.50
15184;DHT22;7693;49.266;7.104;2023-04-19T21:39:01;9.10;91.50
15184;DHT22;7693;49.266;7.104;2023-04-19T21:41:28;9.10;91.50
15184;DHT22;7693;49.266;7.104;2023-04-19T21:43:53;9.10;91.50
15184;DHT22;7693;49.266;7.104;2023-04-19T21:46:19;9.00;91.50
15184;DHT22;7693;49.266;7.104;2023-04-19T21:48:45;9.00;91.50
15184;DHT22;7693;49.266;7.104;2023-04-19T21:51:12;8.90;91.50
15184;DHT22;7693;49.266;7.104;2023-04-19T21:53:38;8.90;91.50
15184;DHT22;7693;49.266;7.104;2023-04-19T21:56:04;8.90;91.50
15184;DHT22;7693;49.266;7.104;2023-04-19T21:58:30;8.80;91.50
15184;DHT22;7693;49.266;7.104;2023-04-19T22:00:55;8.80;91.50
15184;DHT22;7693;49.266;7.104;2023-04-19T22:03:21;8.70;91.50
15184;DHT22;7693;49.266;7.104;2023-04-19T22:05:46;8.70;91.50
15184;DHT22;7693;49.266;7.104;2023-04-19T22:08:12;8.60;91.50
15184;DHT22;7693;49.266;7.104;2023-04-19T22:10:38;8.60;91.50
